sensor_id;sensor_type;location;lat;lon;timestamp;temperature;humidity
75489;HTU21D;64069;46.396;48.102;2023-02-15T00:01:24;-0.15;92.40
75489;HTU21D;64069;46.396;48.102;2023-02-15T00:03:50;-0.15;92.37
75489;HTU21D;64069;46.396;48.102;2023-02-15T00:06:17;-0.14;92.29
75489;HTU21D;64069;46.396;48.102;2023-02-15T00:08:43;-0.10;92.21
75489;HTU21D;64069;46.396;48.102;2023-02-15T00:11:14;-0.02;92.01
75489;HTU21D;64069;46.396;48.102;2023-02-15T00:13:40;0.06;91.78
75489;HTU21D;64069;46.396;48.102;2023-02-15T00:16:11;0.08;91.60
75489;HTU21D;64069;46.396;48.102;2023-02-15T00:18:38;0.14;91.55
75489;HTU21D;64069;46.396;48.102;2023-02-15T00:21:07;0.19;91.43
75489;HTU21D;64069;46.396;48.102;2023-02-15T00:23:34;0.18;91.36
75489;HTU21D;64069;46.396;48.102;2023-02-15T00:26:10;0.18;91.34
75489;HTU21D;64069;46.396;48.102;2023-02-15T00:28:38;0.21;91.24
75489;HTU21D;64069;46.396;48.102;2023-02-15T00:31:09;0.22;91.18
75489;HTU21D;64069;46.396;48.102;2023-02-15T00:33:36;0.21;91.11
75489;HTU21D;64069;46.396;48.102;2023-02-15T00:36:04;0.22;91.04
75489;HTU21D;64069;46.396;48.102;2023-02-15T00:38:31;0.21;91.02
75489;HTU21D;64069;46.396;48.102;2023-02-15T00:41:00;0.20;90.93
75489;HTU21D;64069;46.396;48.102;2023-02-15T00:43:28;0.18;90.86
75489;HTU21D;64069;46.396;48.102;2023-02-15T00:45:54;0.14;90.89
75489;HTU21D;64069;46.396;48.102;2023-02-15T00:48:21;0.08;90.92
75489;HTU21D;64069;46.396;48.102;2023-02-15T00:50:55;0.08;91.01
75489;HTU21D;64069;46.396;48.102;2023-02-15T00:53:22;0.08;91.00
75489;HTU21D;64069;46.396;48.102;2023-02-15T00:55:49;0.12;90.98
75489;HTU21D;64069;46.396;48.102;2023-02-15T00:58:16;0.14;90.96
75489;HTU21D;64069;46.396;48.102;2023-02-15T01:00:44;0.16;90.92
75489;HTU21D;64069;46.396;48.102;2023-02-15T01:03:12;0.17;90.86
75489;HTU21D;64069;46.396;48.102;2023-02-15T01:05:38;0.13;90.90
75489;HTU21D;64069;46.396;48.102;2023-02-15T01:08:04;0.06;91.02
75489;HTU21D;64069;46.396;48.102;2023-02-15T01:10:30;0.02;91.15
75489;HTU21D;64069;46.396;48.102;2023-02-15T01:12:57;0.02;91.27
75489;HTU21D;64069;46.396;48.102;2023-02-15T01:15:23;0.01;91.34
75489;HTU21D;64069;46.396;48.102;2023-02-15T01:17:49;0.05;91.32
75489;HTU21D;64069;46.396;48.102;2023-02-15T01:20:23;0.09;91.25
75489;HTU21D;64069;46.396;48.102;2023-02-15T01:22:50;0.12;91.19
75489;HTU21D;64069;46.396;48.102;2023-02-15T01:25:17;0.15;91.12
75489;HTU21D;64069;46.396;48.102;2023-02-15T01:27:43;0.19;91.08
75489;HTU21D;64069;46.396;48.102;2023-02-15T01:30:13;0.19;91.05
75489;HTU21D;64069;46.396;48.102;2023-02-15T01:32:39;0.21;91.02
75489;HTU21D;64069;46.396;48.102;2023-02-15T01:35:05;0.22;91.02
75489;HTU21D;64069;46.396;48.102;2023-02-15T01:37:32;0.22;91.03
75489;HTU21D;64069;46.396;48.102;2023-02-15T01:39:58;0.21;91.03
75489;HTU21D;64069;46.396;48.102;2023-02-15T01:42:27;0.20;91.07
75489;HTU21D;64069;46.396;48.102;2023-02-15T01:45:02;0.19;91.13
75489;HTU21D;64069;46.396;48.102;2023-02-15T01:47:44;0.19;91.19
75489;HTU21D;64069;46.396;48.102;2023-02-15T01:52:52;0.16;91.23
75489;HTU21D;64069;46.396;48.102;2023-02-15T01:55:21;0.18;91.27
75489;HTU21D;64069;46.396;48.102;2023-02-15T01:57:47;0.20;91.29
75489;HTU21D;64069;46.396;48.102;2023-02-15T02:00:14;0.18;91.30
75489;HTU21D;64069;46.396;48.102;2023-02-15T02:02:43;0.20;91.32
75489;HTU21D;64069;46.396;48.102;2023-02-15T02:05:11;0.20;91.34
75489;HTU21D;64069;46.396;48.102;2023-02-15T02:07:43;0.20;91.38
75489;HTU21D;64069;46.396;48.102;2023-02-15T02:10:13;0.20;91.42
75489;HTU21D;64069;46.396;48.102;2023-02-15T02:12:42;0.23;91.49
75489;HTU21D;64069;46.396;48.102;2023-02-15T02:15:09;0.27;91.50
75489;HTU21D;64069;46.396;48.102;2023-02-15T02:18:08;0.29;91.53
75489;HTU21D;64069;46.396;48.102;2023-02-15T02:27:02;0.36;91.59
75489;HTU21D;64069;46.396;48.102;2023-02-15T02:34:27;0.46;91.69
75489;HTU21D;64069;46.396;48.102;2023-02-15T02:36:58;0.50;91.73
75489;HTU21D;64069;46.396;48.102;2023-02-15T02:39:59;0.54;91.68
75489;HTU21D;64069;46.396;48.102;2023-02-15T02:42:41;0.59;91.66
75489;HTU21D;64069;46.396;48.102;2023-02-15T02:48:34;0.69;91.76
75489;HTU21D;64069;46.396;48.102;2023-02-15T02:50:39;0.73;91.85
75489;HTU21D;64069;46.396;48.102;2023-02-15T02:53:05;0.76;91.94
75489;HTU21D;64069;46.396;48.102;2023-02-15T02:58:17;0.80;92.34
75489;HTU21D;64069;46.396;48.102;2023-02-15T03:00:57;0.81;92.49
75489;HTU21D;64069;46.396;48.102;2023-02-15T03:03:58;0.82;92.79
75489;HTU21D;64069;46.396;48.102;2023-02-15T03:06:40;0.84;93.09
75489;HTU21D;64069;46.396;48.102;2023-02-15T03:09:17;0.84;93.21
75489;HTU21D;64069;46.396;48.102;2023-02-15T03:11:44;0.83;93.37
75489;HTU21D;64069;46.396;48.102;2023-02-15T03:14:13;0.86;93.46
75489;HTU21D;64069;46.396;48.102;2023-02-15T03:16:40;0.87;93.66
75489;HTU21D;64069;46.396;48.102;2023-02-15T03:19:11;0.88;93.77
75489;HTU21D;64069;46.396;48.102;2023-02-15T03:21:45;0.89;93.88
75489;HTU21D;64069;46.396;48.102;2023-02-15T03:27:15;0.92;94.02
75489;HTU21D;64069;46.396;48.102;2023-02-15T03:29:44;0.94;94.11
75489;HTU21D;64069;46.396;48.102;2023-02-15T03:32:12;0.95;94.14
75489;HTU21D;64069;46.396;48.102;2023-02-15T03:34:40;0.96;94.17
75489;HTU21D;64069;46.396;48.102;2023-02-15T03:37:56;1.01;94.27
75489;HTU21D;64069;46.396;48.102;2023-02-15T03:43:00;1.02;94.47
75489;HTU21D;64069;46.396;48.102;2023-02-15T03:45:31;1.07;94.49
75489;HTU21D;64069;46.396;48.102;2023-02-15T03:47:58;1.11;94.49
75489;HTU21D;64069;46.396;48.102;2023-02-15T03:50:31;1.16;94.46
75489;HTU21D;64069;46.396;48.102;2023-02-15T03:53:19;1.21;94.46
75489;HTU21D;64069;46.396;48.102;2023-02-15T03:55:53;1.23;94.43
75489;HTU21D;64069;46.396;48.102;2023-02-15T03:58:20;1.27;94.46
75489;HTU21D;64069;46.396;48.102;2023-02-15T04:01:27;1.29;94.46
75489;HTU21D;64069;46.396;48.102;2023-02-15T04:04:22;1.33;94.43
75489;HTU21D;64069;46.396;48.102;2023-02-15T04:06:49;1.34;94.43
75489;HTU21D;64069;46.396;48.102;2023-02-15T04:09:16;1.34;94.46
75489;HTU21D;64069;46.396;48.102;2023-02-15T04:12:00;1.34;94.50
75489;HTU21D;64069;46.396;48.102;2023-02-15T04:14:26;1.35;94.54
75489;HTU21D;64069;46.396;48.102;2023-02-15T04:17:10;1.39;94.54
75489;HTU21D;64069;46.396;48.102;2023-02-15T04:19:37;1.40;94.56
75489;HTU21D;64069;46.396;48.102;2023-02-15T04:22:21;1.45;94.56
75489;HTU21D;64069;46.396;48.102;2023-02-15T04:25:05;1.45;94.57
75489;HTU21D;64069;46.396;48.102;2023-02-15T04:27:43;1.45;94.60
75489;HTU21D;64069;46.396;48.102;2023-02-15T04:30:10;1.49;94.63
75489;HTU21D;64069;46.396;48.102;2023-02-15T04:32:37;1.54;94.62
75489;HTU21D;64069;46.396;48.102;2023-02-15T04:35:05;1.60;94.58
75489;HTU21D;64069;46.396;48.102;2023-02-15T04:37:32;1.65;94.52
75489;HTU21D;64069;46.396;48.102;2023-02-15T04:39:58;1.71;94.48
75489;HTU21D;64069;46.396;48.102;2023-02-15T04:42:25;1.76;94.43
75489;HTU21D;64069;46.396;48.102;2023-02-15T04:44:52;1.81;94.37
75489;HTU21D;64069;46.396;48.102;2023-02-15T04:47:18;1.87;94.32
75489;HTU21D;64069;46.396;48.102;2023-02-15T04:49:44;1.94;94.27
75489;HTU21D;64069;46.396;48.102;2023-02-15T04:52:10;2.03;94.23
75489;HTU21D;64069;46.396;48.102;2023-02-15T04:54:36;2.11;94.12
75489;HTU21D;64069;46.396;48.102;2023-02-15T04:57:03;2.19;94.05
75489;HTU21D;64069;46.396;48.102;2023-02-15T04:59:30;2.27;93.95
75489;HTU21D;64069;46.396;48.102;2023-02-15T05:01:56;2.32;93.89
75489;HTU21D;64069;46.396;48.102;2023-02-15T05:04:22;2.41;93.81
75489;HTU21D;64069;46.396;48.102;2023-02-15T05:06:48;2.46;93.74
75489;HTU21D;64069;46.396;48.102;2023-02-15T05:09:14;2.51;93.66
75489;HTU21D;64069;46.396;48.102;2023-02-15T05:11:40;2.50;93.63
75489;HTU21D;64069;46.396;48.102;2023-02-15T05:14:06;2.51;93.62
75489;HTU21D;64069;46.396;48.102;2023-02-15T05:16:33;2.55;93.61
75489;HTU21D;64069;46.396;48.102;2023-02-15T05:18:59;2.58;93.59
75489;HTU21D;64069;46.396;48.102;2023-02-15T05:21:25;2.58;93.57
75489;HTU21D;64069;46.396;48.102;2023-02-15T05:23:51;2.61;93.56
75489;HTU21D;64069;46.396;48.102;2023-02-15T05:26:19;2.64;93.53
75489;HTU21D;64069;46.396;48.102;2023-02-15T05:29:08;2.65;93.49
75489;HTU21D;64069;46.396;48.102;2023-02-15T05:31:34;2.66;93.48
75489;HTU21D;64069;46.396;48.102;2023-02-15T05:34:01;2.68;93.47
75489;HTU21D;64069;46.396;48.102;2023-02-15T05:36:27;2.70;93.43
75489;HTU21D;64069;46.396;48.102;2023-02-15T05:38:54;2.71;93.40
75489;HTU21D;64069;46.396;48.102;2023-02-15T05:41:20;2.72;93.40
75489;HTU21D;64069;46.396;48.102;2023-02-15T05:43:46;2.75;93.37
75489;HTU21D;64069;46.396;48.102;2023-02-15T05:46:13;2.79;93.34
75489;HTU21D;64069;46.396;48.102;2023-02-15T05:48:39;2.84;93.27
75489;HTU21D;64069;46.396;48.102;2023-02-15T05:51:10;2.87;93.23
75489;HTU21D;64069;46.396;48.102;2023-02-15T05:53:39;2.91;93.12
75489;HTU21D;64069;46.396;48.102;2023-02-15T05:56:07;2.96;93.07
75489;HTU21D;64069;46.396;48.102;2023-02-15T05:58:41;3.01;92.97
75489;HTU21D;64069;46.396;48.102;2023-02-15T06:01:11;3.06;92.88
75489;HTU21D;64069;46.396;48.102;2023-02-15T06:03:37;3.11;92.78
75489;HTU21D;64069;46.396;48.102;2023-02-15T06:06:03;3.13;92.71
75489;HTU21D;64069;46.396;48.102;2023-02-15T06:08:31;3.16;92.64
75489;HTU21D;64069;46.396;48.102;2023-02-15T06:10:58;3.20;92.58
75489;HTU21D;64069;46.396;48.102;2023-02-15T06:13:23;3.27;92.53
75489;HTU21D;64069;46.396;48.102;2023-02-15T06:15:49;3.33;92.42
75489;HTU21D;64069;46.396;48.102;2023-02-15T06:18:15;3.38;92.28
75489;HTU21D;64069;46.396;48.102;2023-02-15T06:20:41;3.40;92.24
75489;HTU21D;64069;46.396;48.102;2023-02-15T06:23:07;3.36;92.19
75489;HTU21D;64069;46.396;48.102;2023-02-15T06:25:33;3.36;92.24
75489;HTU21D;64069;46.396;48.102;2023-02-15T06:27:59;3.39;92.23
75489;HTU21D;64069;46.396;48.102;2023-02-15T06:30:25;3.40;92.21
75489;HTU21D;64069;46.396;48.102;2023-02-15T06:32:51;3.39;92.15
75489;HTU21D;64069;46.396;48.102;2023-02-15T06:35:17;3.38;92.19
75489;HTU21D;64069;46.396;48.102;2023-02-15T06:37:45;3.41;92.14
75489;HTU21D;64069;46.396;48.102;2023-02-15T06:40:11;3.39;92.14
75489;HTU21D;64069;46.396;48.102;2023-02-15T06:42:37;3.39;92.10
75489;HTU21D;64069;46.396;48.102;2023-02-15T06:45:04;3.39;92.10
75489;HTU21D;64069;46.396;48.102;2023-02-15T06:47:30;3.43;92.08
75489;HTU21D;64069;46.396;48.102;2023-02-15T06:49:56;3.44;92.01
75489;HTU21D;64069;46.396;48.102;2023-02-15T06:52:23;3.47;91.95
75489;HTU21D;64069;46.396;48.102;2023-02-15T06:54:49;3.50;91.91
75489;HTU21D;64069;46.396;48.102;2023-02-15T06:57:15;3.55;91.80
75489;HTU21D;64069;46.396;48.102;2023-02-15T06:59:46;3.60;91.77
75489;HTU21D;64069;46.396;48.102;2023-02-15T07:02:13;3.67;91.68
75489;HTU21D;64069;46.396;48.102;2023-02-15T07:04:39;3.72;91.55
75489;HTU21D;64069;46.396;48.102;2023-02-15T07:07:08;3.78;91.47
75489;HTU21D;64069;46.396;48.102;2023-02-15T07:09:39;3.82;91.37
75489;HTU21D;64069;46.396;48.102;2023-02-15T07:12:06;3.85;91.22
75489;HTU21D;64069;46.396;48.102;2023-02-15T07:14:50;3.87;91.15
75489;HTU21D;64069;46.396;48.102;2023-02-15T07:17:16;3.90;91.05
75489;HTU21D;64069;46.396;48.102;2023-02-15T07:19:43;3.92;90.93
75489;HTU21D;64069;46.396;48.102;2023-02-15T07:22:09;4.00;90.89
75489;HTU21D;64069;46.396;48.102;2023-02-15T07:24:35;4.14;90.66
75489;HTU21D;64069;46.396;48.102;2023-02-15T07:27:01;4.21;90.39
75489;HTU21D;64069;46.396;48.102;2023-02-15T07:29:28;4.31;90.26
75489;HTU21D;64069;46.396;48.102;2023-02-15T07:31:54;4.39;90.02
75489;HTU21D;64069;46.396;48.102;2023-02-15T07:34:20;4.44;89.93
75489;HTU21D;64069;46.396;48.102;2023-02-15T07:36:46;4.48;89.81
75489;HTU21D;64069;46.396;48.102;2023-02-15T07:39:13;4.54;89.76
75489;HTU21D;64069;46.396;48.102;2023-02-15T07:41:38;4.65;89.66
75489;HTU21D;64069;46.396;48.102;2023-02-15T07:44:14;4.78;89.44
75489;HTU21D;64069;46.396;48.102;2023-02-15T07:46:41;4.84;89.15
75489;HTU21D;64069;46.396;48.102;2023-02-15T07:49:07;4.92;89.01
75489;HTU21D;64069;46.396;48.102;2023-02-15T07:51:33;5.00;88.86
75489;HTU21D;64069;46.396;48.102;2023-02-15T07:53:59;5.09;88.67
75489;HTU21D;64069;46.396;48.102;2023-02-15T07:56:25;5.24;88.47
75489;HTU21D;64069;46.396;48.102;2023-02-15T07:58:51;5.39;88.15
75489;HTU21D;64069;46.396;48.102;2023-02-15T08:01:23;5.54;87.87
75489;HTU21D;64069;46.396;48.102;2023-02-15T08:03:49;5.63;87.70
75489;HTU21D;64069;46.396;48.102;2023-02-15T08:06:16;5.70;87.47
75489;HTU21D;64069;46.396;48.102;2023-02-15T08:08:42;5.79;87.31
75489;HTU21D;64069;46.396;48.102;2023-02-15T08:14:21;5.93;86.99
75489;HTU21D;64069;46.396;48.102;2023-02-15T08:16:51;6.07;86.83
75489;HTU21D;64069;46.396;48.102;2023-02-15T08:19:26;6.19;86.65
75489;HTU21D;64069;46.396;48.102;2023-02-15T08:22:06;6.26;86.37
75489;HTU21D;64069;46.396;48.102;2023-02-15T08:24:35;6.31;86.22
75489;HTU21D;64069;46.396;48.102;2023-02-15T08:27:03;6.27;86.09
75489;HTU21D;64069;46.396;48.102;2023-02-15T08:29:30;6.24;86.12
75489;HTU21D;64069;46.396;48.102;2023-02-15T08:32:03;6.27;86.01
75489;HTU21D;64069;46.396;48.102;2023-02-15T08:34:32;6.24;85.86
75489;HTU21D;64069;46.396;48.102;2023-02-15T08:36:58;6.24;85.86
75489;HTU21D;64069;46.396;48.102;2023-02-15T08:39:24;6.33;85.73
75489;HTU21D;64069;46.396;48.102;2023-02-15T08:41:50;6.42;85.30
75489;HTU21D;64069;46.396;48.102;2023-02-15T08:44:18;6.46;85.10
75489;HTU21D;64069;46.396;48.102;2023-02-15T08:46:46;6.57;84.80
75489;HTU21D;64069;46.396;48.102;2023-02-15T08:49:16;6.63;84.53
75489;HTU21D;64069;46.396;48.102;2023-02-15T08:51:42;6.63;84.42
75489;HTU21D;64069;46.396;48.102;2023-02-15T08:54:11;6.74;84.29
75489;HTU21D;64069;46.396;48.102;2023-02-15T08:56:39;6.80;83.97
75489;HTU21D;64069;46.396;48.102;2023-02-15T08:59:13;6.88;83.81
75489;HTU21D;64069;46.396;48.102;2023-02-15T09:01:39;6.98;83.70
75489;HTU21D;64069;46.396;48.102;2023-02-15T09:04:06;6.98;83.35
75489;HTU21D;64069;46.396;48.102;2023-02-15T09:06:34;6.96;83.46
75489;HTU21D;64069;46.396;48.102;2023-02-15T09:09:02;6.98;83.36
75489;HTU21D;64069;46.396;48.102;2023-02-15T09:11:32;7.08;83.20
75489;HTU21D;64069;46.396;48.102;2023-02-15T09:14:01;7.19;82.94
75489;HTU21D;64069;46.396;48.102;2023-02-15T09:16:30;7.28;82.68
75489;HTU21D;64069;46.396;48.102;2023-02-15T09:18:56;7.26;82.56
75489;HTU21D;64069;46.396;48.102;2023-02-15T09:21:31;7.22;82.46
75489;HTU21D;64069;46.396;48.102;2023-02-15T09:24:00;7.18;82.47
75489;HTU21D;64069;46.396;48.102;2023-02-15T09:26:28;7.15;82.39
75489;HTU21D;64069;46.396;48.102;2023-02-15T09:28:57;7.12;82.25
75489;HTU21D;64069;46.396;48.102;2023-02-15T09:31:26;7.04;82.07
75489;HTU21D;64069;46.396;48.102;2023-02-15T09:33:53;7.04;82.23
75489;HTU21D;64069;46.396;48.102;2023-02-15T09:36:29;7.04;81.96
75489;HTU21D;64069;46.396;48.102;2023-02-15T09:39:21;6.94;81.90
75489;HTU21D;64069;46.396;48.102;2023-02-15T09:45:07;6.78;82.07
75489;HTU21D;64069;46.396;48.102;2023-02-15T10:09:19;6.46;81.95
75489;HTU21D;64069;46.396;48.102;2023-02-15T10:28:49;6.06;82.05
75489;HTU21D;64069;46.396;48.102;2023-02-15T10:31:28;5.97;82.10
75489;HTU21D;64069;46.396;48.102;2023-02-15T10:40:02;5.11;82.87
75489;HTU21D;64069;46.396;48.102;2023-02-15T10:45:23;4.90;83.14
75489;HTU21D;64069;46.396;48.102;2023-02-15T10:50:50;4.92;82.90
75489;HTU21D;64069;46.396;48.102;2023-02-15T10:56:19;4.73;82.87
75489;HTU21D;64069;46.396;48.102;2023-02-15T10:59:08;4.63;83.14
75489;HTU21D;64069;46.396;48.102;2023-02-15T11:01:57;4.65;83.19
75489;HTU21D;64069;46.396;48.102;2023-02-15T11:07:22;4.53;83.11
75489;HTU21D;64069;46.396;48.102;2023-02-15T11:09:53;4.46;83.26
75489;HTU21D;64069;46.396;48.102;2023-02-15T11:12:24;4.41;83.43
75489;HTU21D;64069;46.396;48.102;2023-02-15T11:17:59;4.42;83.41
75489;HTU21D;64069;46.396;48.102;2023-02-15T11:20:38;4.37;83.44
75489;HTU21D;64069;46.396;48.102;2023-02-15T11:23:14;4.36;83.57
75489;HTU21D;64069;46.396;48.102;2023-02-15T11:25:56;4.45;83.58
75489;HTU21D;64069;46.396;48.102;2023-02-15T11:28:28;4.57;83.39
75489;HTU21D;64069;46.396;48.102;2023-02-15T11:30:56;4.61;83.27
75489;HTU21D;64069;46.396;48.102;2023-02-15T11:33:33;4.66;83.20
75489;HTU21D;64069;46.396;48.102;2023-02-15T11:36:06;4.72;83.13
75489;HTU21D;64069;46.396;48.102;2023-02-15T11:38:33;4.82;83.00
75489;HTU21D;64069;46.396;48.102;2023-02-15T11:41:21;4.89;82.76
75489;HTU21D;64069;46.396;48.102;2023-02-15T11:44:11;4.84;82.75
75489;HTU21D;64069;46.396;48.102;2023-02-15T11:46:40;4.68;82.90
75489;HTU21D;64069;46.396;48.102;2023-02-15T11:49:32;4.42;83.40
75489;HTU21D;64069;46.396;48.102;2023-02-15T11:52:02;4.22;83.81
75489;HTU21D;64069;46.396;48.102;2023-02-15T11:54:32;4.10;84.20
75489;HTU21D;64069;46.396;48.102;2023-02-15T12:00:14;4.07;84.35
75489;HTU21D;64069;46.396;48.102;2023-02-15T12:02:46;4.00;84.33
75489;HTU21D;64069;46.396;48.102;2023-02-15T12:05:18;3.84;84.54
75489;HTU21D;64069;46.396;48.102;2023-02-15T12:08:02;3.71;84.82
75489;HTU21D;64069;46.396;48.102;2023-02-15T12:11:12;3.54;85.13
75489;HTU21D;64069;46.396;48.102;2023-02-15T12:14:11;3.35;85.38
75489;HTU21D;64069;46.396;48.102;2023-02-15T12:16:43;3.24;85.55
75489;HTU21D;64069;46.396;48.102;2023-02-15T12:21:51;2.98;85.94
75489;HTU21D;64069;46.396;48.102;2023-02-15T12:24:26;2.86;86.16
75489;HTU21D;64069;46.396;48.102;2023-02-15T12:32:37;2.53;86.69
75489;HTU21D;64069;46.396;48.102;2023-02-15T12:35:31;2.40;86.93
75489;HTU21D;64069;46.396;48.102;2023-02-15T12:38:02;2.29;87.09
75489;HTU21D;64069;46.396;48.102;2023-02-15T12:40:31;2.22;87.28
75489;HTU21D;64069;46.396;48.102;2023-02-15T12:42:58;2.16;87.39
75489;HTU21D;64069;46.396;48.102;2023-02-15T12:50:49;2.11;87.50
75489;HTU21D;64069;46.396;48.102;2023-02-15T12:53:21;2.10;87.51
75489;HTU21D;64069;46.396;48.102;2023-02-15T12:55:57;2.10;87.53
75489;HTU21D;64069;46.396;48.102;2023-02-15T12:58:36;2.08;87.57
75489;HTU21D;64069;46.396;48.102;2023-02-15T13:03:40;2.05;87.69
75489;HTU21D;64069;46.396;48.102;2023-02-15T13:06:20;2.03;87.73
75489;HTU21D;64069;46.396;48.102;2023-02-15T13:08:52;1.99;87.86
75489;HTU21D;64069;46.396;48.102;2023-02-15T13:11:28;1.98;87.99
75489;HTU21D;64069;46.396;48.102;2023-02-15T13:14:02;1.98;88.07
75489;HTU21D;64069;46.396;48.102;2023-02-15T13:16:34;1.98;88.14
75489;HTU21D;64069;46.396;48.102;2023-02-15T13:19:06;1.97;88.19
75489;HTU21D;64069;46.396;48.102;2023-02-15T13:21:40;1.96;88.23
75489;HTU21D;64069;46.396;48.102;2023-02-15T13:24:20;1.94;88.34
75489;HTU21D;64069;46.396;48.102;2023-02-15T13:26:47;1.92;88.41
75489;HTU21D;64069;46.396;48.102;2023-02-15T13:29:22;1.91;88.51
75489;HTU21D;64069;46.396;48.102;2023-02-15T13:31:50;1.90;88.57
75489;HTU21D;64069;46.396;48.102;2023-02-15T13:34:32;1.87;88.73
75489;HTU21D;64069;46.396;48.102;2023-02-15T13:39:58;1.84;88.92
75489;HTU21D;64069;46.396;48.102;2023-02-15T13:48:33;1.77;89.11
75489;HTU21D;64069;46.396;48.102;2023-02-15T13:51:19;1.73;89.15
75489;HTU21D;64069;46.396;48.102;2023-02-15T13:59:39;1.65;89.40
75489;HTU21D;64069;46.396;48.102;2023-02-15T14:05:13;1.56;89.64
75489;HTU21D;64069;46.396;48.102;2023-02-15T14:15:49;1.41;89.98
75489;HTU21D;64069;46.396;48.102;2023-02-15T14:21:21;1.35;90.06
75489;HTU21D;64069;46.396;48.102;2023-02-15T14:29:58;1.25;90.15
75489;HTU21D;64069;46.396;48.102;2023-02-15T14:32:41;1.22;90.12
75489;HTU21D;64069;46.396;48.102;2023-02-15T14:35:19;1.19;90.12
75489;HTU21D;64069;46.396;48.102;2023-02-15T14:44:07;1.10;90.21
75489;HTU21D;64069;46.396;48.102;2023-02-15T14:46:46;1.09;90.21
75489;HTU21D;64069;46.396;48.102;2023-02-15T14:49:25;1.08;90.18
75489;HTU21D;64069;46.396;48.102;2023-02-15T14:56:46;1.05;90.26
75489;HTU21D;64069;46.396;48.102;2023-02-15T15:02:29;1.03;90.26
75489;HTU21D;64069;46.396;48.102;2023-02-15T15:05:09;1.01;90.28
75489;HTU21D;64069;46.396;48.102;2023-02-15T15:07:43;0.99;90.29
75489;HTU21D;64069;46.396;48.102;2023-02-15T15:12:56;0.96;90.35
75489;HTU21D;64069;46.396;48.102;2023-02-15T15:18:08;0.92;90.44
75489;HTU21D;64069;46.396;48.102;2023-02-15T15:20:42;0.90;90.50
75489;HTU21D;64069;46.396;48.102;2023-02-15T15:34:21;0.77;90.77
75489;HTU21D;64069;46.396;48.102;2023-02-15T15:39:52;0.69;90.82
75489;HTU21D;64069;46.396;48.102;2023-02-15T15:42:48;0.68;90.92
75489;HTU21D;64069;46.396;48.102;2023-02-15T15:48:35;0.67;90.96
75489;HTU21D;64069;46.396;48.102;2023-02-15T15:51:25;0.67;90.89
75489;HTU21D;64069;46.396;48.102;2023-02-15T15:53:56;0.68;90.89
75489;HTU21D;64069;46.396;48.102;2023-02-15T15:56:27;0.68;90.89
75489;HTU21D;64069;46.396;48.102;2023-02-15T15:59:07;0.68;90.95
75489;HTU21D;64069;46.396;48.102;2023-02-15T16:01:42;0.66;91.00
75489;HTU21D;64069;46.396;48.102;2023-02-15T16:04:29;0.64;91.08
75489;HTU21D;64069;46.396;48.102;2023-02-15T16:10:00;0.55;91.17
75489;HTU21D;64069;46.396;48.102;2023-02-15T16:12:30;0.52;91.25
75489;HTU21D;64069;46.396;48.102;2023-02-15T16:14:56;0.50;91.38
75489;HTU21D;64069;46.396;48.102;2023-02-15T16:17:26;0.46;91.46
75489;HTU21D;64069;46.396;48.102;2023-02-15T16:20:01;0.46;91.55
75489;HTU21D;64069;46.396;48.102;2023-02-15T16:22:28;0.39;91.66
75489;HTU21D;64069;46.396;48.102;2023-02-15T16:27:45;0.30;91.80
75489;HTU21D;64069;46.396;48.102;2023-02-15T16:30:27;0.23;91.87
75489;HTU21D;64069;46.396;48.102;2023-02-15T16:35:57;0.19;91.92
75489;HTU21D;64069;46.396;48.102;2023-02-15T16:41:34;0.10;91.98
75489;HTU21D;64069;46.396;48.102;2023-02-15T16:44:14;0.06;92.03
75489;HTU21D;64069;46.396;48.102;2023-02-15T16:46:45;-0.01;92.16
75489;HTU21D;64069;46.396;48.102;2023-02-15T16:49:22;-0.08;92.23
75489;HTU21D;64069;46.396;48.102;2023-02-15T16:51:57;-0.14;92.31
75489;HTU21D;64069;46.396;48.102;2023-02-15T16:54:27;-0.22;92.40
75489;HTU21D;64069;46.396;48.102;2023-02-15T16:56:54;-0.27;92.46
75489;HTU21D;64069;46.396;48.102;2023-02-15T16:59:41;-0.34;92.53
75489;HTU21D;64069;46.396;48.102;2023-02-15T17:02:23;-0.38;92.59
75489;HTU21D;64069;46.396;48.102;2023-02-15T17:07:41;-0.43;92.60
75489;HTU21D;64069;46.396;48.102;2023-02-15T17:10:31;-0.47;92.64
75489;HTU21D;64069;46.396;48.102;2023-02-15T17:13:02;-0.50;92.65
75489;HTU21D;64069;46.396;48.102;2023-02-15T17:18:00;-0.51;92.56
75489;HTU21D;64069;46.396;48.102;2023-02-15T17:20:27;-0.51;92.56
75489;HTU21D;64069;46.396;48.102;2023-02-15T17:22:54;-0.53;92.64
75489;HTU21D;64069;46.396;48.102;2023-02-15T17:25:25;-0.55;92.70
75489;HTU21D;64069;46.396;48.102;2023-02-15T17:27:58;-0.55;92.75
75489;HTU21D;64069;46.396;48.102;2023-02-15T17:30:33;-0.54;92.76
75489;HTU21D;64069;46.396;48.102;2023-02-15T17:33:02;-0.50;92.79
75489;HTU21D;64069;46.396;48.102;2023-02-15T17:35:31;-0.50;92.78
75489;HTU21D;64069;46.396;48.102;2023-02-15T17:38:19;-0.47;92.82
75489;HTU21D;64069;46.396;48.102;2023-02-15T17:40:45;-0.49;92.84
75489;HTU21D;64069;46.396;48.102;2023-02-15T17:43:11;-0.47;92.86
75489;HTU21D;64069;46.396;48.102;2023-02-15T17:45:48;-0.47;92.92
75489;HTU21D;64069;46.396;48.102;2023-02-15T17:48:40;-0.46;92.98
75489;HTU21D;64069;46.396;48.102;2023-02-15T17:51:11;-0.45;93.01
75489;HTU21D;64069;46.396;48.102;2023-02-15T17:53:37;-0.44;93.04
75489;HTU21D;64069;46.396;48.102;2023-02-15T17:56:03;-0.42;93.08
75489;HTU21D;64069;46.396;48.102;2023-02-15T17:58:35;-0.41;93.11
75489;HTU21D;64069;46.396;48.102;2023-02-15T18:01:09;-0.38;93.21
75489;HTU21D;64069;46.396;48.102;2023-02-15T18:03:56;-0.37;93.25
75489;HTU21D;64069;46.396;48.102;2023-02-15T18:06:43;-0.32;93.21
75489;HTU21D;64069;46.396;48.102;2023-02-15T18:09:27;-0.30;93.17
75489;HTU21D;64069;46.396;48.102;2023-02-15T18:12:25;-0.27;93.18
75489;HTU21D;64069;46.396;48.102;2023-02-15T18:14:56;-0.28;93.25
75489;HTU21D;64069;46.396;48.102;2023-02-15T18:19:52;-0.24;93.31
75489;HTU21D;64069;46.396;48.102;2023-02-15T18:22:19;-0.23;93.30
75489;HTU21D;64069;46.396;48.102;2023-02-15T18:24:48;-0.22;93.30
75489;HTU21D;64069;46.396;48.102;2023-02-15T18:27:15;-0.20;93.28
75489;HTU21D;64069;46.396;48.102;2023-02-15T18:29:41;-0.16;93.27
75489;HTU21D;64069;46.396;48.102;2023-02-15T18:32:14;-0.13;93.24
75489;HTU21D;64069;46.396;48.102;2023-02-15T18:34:42;-0.10;93.20
75489;HTU21D;64069;46.396;48.102;2023-02-15T18:37:15;-0.09;93.17
75489;HTU21D;64069;46.396;48.102;2023-02-15T18:39:47;-0.07;93.15
75489;HTU21D;64069;46.396;48.102;2023-02-15T18:44:57;-0.10;93.11
75489;HTU21D;64069;46.396;48.102;2023-02-15T18:47:23;-0.11;93.11
75489;HTU21D;64069;46.396;48.102;2023-02-15T18:49:49;-0.11;93.08
75489;HTU21D;64069;46.396;48.102;2023-02-15T18:52:21;-0.16;93.04
75489;HTU21D;64069;46.396;48.102;2023-02-15T18:54:51;-0.26;93.10
75489;HTU21D;64069;46.396;48.102;2023-02-15T18:57:18;-0.35;93.24
75489;HTU21D;64069;46.396;48.102;2023-02-15T18:59:47;-0.41;93.42
75489;HTU21D;64069;46.396;48.102;2023-02-15T19:02:15;-0.45;93.50
75489;HTU21D;64069;46.396;48.102;2023-02-15T19:04:42;-0.49;93.57
75489;HTU21D;64069;46.396;48.102;2023-02-15T19:07:21;-0.52;93.59